Curran, Illinois
Current Conditions -  °F | °C
As of 11:52 PM on Friday 24 Oct 2014 (Local Time) from KSPI Reporting Station
Overcast Overcast  
Wind Chill: 64°   Ceiling: 4200
Heat Index: 64°   Visibility: 10mi
Dew Point: 50°   Wind: 9mph
Humidity: 60%   Direction: 200°SSW
Pressure: 29.97"   Gusts: NA
Location:  39.7375°N, 89.904°W
Report Text: KSPI 250452Z AUTO 20008KT 10SM OVC042 18/10 A2997 RMK AO2 SLP146 T01780100
Loading
Personal Weather Stations






























Interactive Weather Map
Tropical Storm Tracking
New forecast layout! Learn more

10-Day Weather Forecast

Advertisements
Track Severe Weather on mobile